createdAt,value
2023-02-17T00:00:32.553Z,0.73
2023-02-17T00:03:03.819Z,0.60
2023-02-17T00:05:35.674Z,0.45
2023-02-17T00:10:37.350Z,0.70
2023-02-17T00:13:08.629Z,0.60
2023-02-17T00:15:42.473Z,0.57
2023-02-17T00:18:13.495Z,0.50
2023-02-17T00:20:45.906Z,0.50
2023-02-17T00:23:17.381Z,0.68
2023-02-17T00:28:19.438Z,0.50
2023-02-17T00:30:50.693Z,0.60
2023-02-17T00:33:23.469Z,0.70
2023-02-17T00:35:54.481Z,0.60
2023-02-17T00:38:25.553Z,0.60
2023-02-17T00:40:57.299Z,0.60
2023-02-17T00:43:28.638Z,0.55
2023-02-17T00:45:59.809Z,0.60
2023-02-17T00:48:30.905Z,0.40
2023-02-17T00:51:02.158Z,0.43
2023-02-17T00:53:33.493Z,0.50
2023-02-17T00:58:36.955Z,0.55
2023-02-17T01:01:08.036Z,0.45
2023-02-17T01:03:39.248Z,0.40
2023-02-17T01:06:13.255Z,0.60
2023-02-17T01:08:44.279Z,0.50
2023-02-17T01:11:21.727Z,0.95
2023-02-17T01:13:53.000Z,0.60
2023-02-17T01:16:27.869Z,0.65
2023-02-17T01:19:02.392Z,0.40
2023-02-17T01:21:35.123Z,0.43
2023-02-17T01:24:08.851Z,0.47
2023-02-17T01:26:40.924Z,0.70
2023-02-17T01:29:11.994Z,0.63
2023-02-17T01:31:43.480Z,0.50
2023-02-17T01:34:15.394Z,0.65
2023-02-17T01:36:46.383Z,0.50
2023-02-17T01:39:18.286Z,0.45
2023-02-17T01:41:50.144Z,0.40
2023-02-17T01:44:26.098Z,0.50
2023-02-17T01:46:58.190Z,0.90
2023-02-17T01:49:35.695Z,0.50
2023-02-17T01:52:14.908Z,0.40
2023-02-17T01:54:57.880Z,0.63
2023-02-17T01:57:33.868Z,0.40
2023-02-17T02:00:06.325Z,0.50
2023-02-17T02:02:44.996Z,0.60
2023-02-17T02:05:18.676Z,1.00
2023-02-17T02:07:51.155Z,0.30
2023-02-17T02:10:22.588Z,0.50
2023-02-17T02:12:53.804Z,0.60
2023-02-17T02:15:31.440Z,0.43
2023-02-17T02:18:28.769Z,0.82
2023-02-17T02:21:09.382Z,1.30
2023-02-17T02:23:57.478Z,0.52
2023-02-17T02:26:52.337Z,0.40
2023-02-17T02:29:31.705Z,0.45
2023-02-17T02:32:20.878Z,0.90
2023-02-17T02:35:03.984Z,0.60
2023-02-17T02:37:39.109Z,0.90
2023-02-17T02:40:11.958Z,0.50
2023-02-17T02:42:44.050Z,0.52
2023-02-17T02:45:15.543Z,0.70
2023-02-17T02:47:53.061Z,0.60
2023-02-17T02:50:49.646Z,0.63
2023-02-17T02:53:53.243Z,0.93
2023-02-17T02:56:27.696Z,0.47
2023-02-17T02:59:42.526Z,0.50
2023-02-17T03:02:22.640Z,0.50
2023-02-17T03:05:18.197Z,0.50
2023-02-17T03:08:03.663Z,0.90
2023-02-17T03:10:35.065Z,0.63
2023-02-17T03:15:37.621Z,0.50
2023-02-17T03:18:10.168Z,0.32
2023-02-17T03:20:51.694Z,0.50
2023-02-17T03:23:23.367Z,0.40
2023-02-17T03:25:54.847Z,0.50
2023-02-17T03:28:27.070Z,0.40
2023-02-17T03:30:58.737Z,0.40
2023-02-17T03:33:30.312Z,0.40
2023-02-17T03:36:03.002Z,0.50
2023-02-17T03:38:34.195Z,0.88
2023-02-17T03:41:05.371Z,0.90
2023-02-17T03:43:36.861Z,0.50
2023-02-17T03:46:12.079Z,0.38
2023-02-17T03:48:43.582Z,0.50
2023-02-17T03:53:45.938Z,0.67
2023-02-17T03:56:17.527Z,0.40
2023-02-17T03:58:48.759Z,0.70
2023-02-17T04:03:50.704Z,1.10
2023-02-17T04:06:22.037Z,0.60
2023-02-17T04:08:53.490Z,0.50
2023-02-17T04:11:24.579Z,0.80
2023-02-17T04:13:55.731Z,1.00
2023-02-17T04:16:26.793Z,0.70
2023-02-17T04:18:58.212Z,0.50
2023-02-17T04:24:01.961Z,0.50
2023-02-17T04:26:34.060Z,0.77
2023-02-17T04:34:07.586Z,0.82
2023-02-17T04:36:38.681Z,1.40
2023-02-17T04:41:40.460Z,0.85
2023-02-17T04:44:11.636Z,0.90
2023-02-17T04:46:42.765Z,0.82
2023-02-17T04:49:13.781Z,1.60
2023-02-17T04:51:44.753Z,1.13
2023-02-17T04:54:16.241Z,0.85
2023-02-17T04:56:47.373Z,1.15
2023-02-17T04:59:18.574Z,0.80
2023-02-17T05:01:50.095Z,0.70
2023-02-17T05:04:22.158Z,1.67
2023-02-17T05:06:53.375Z,0.82
2023-02-17T05:09:24.477Z,1.38
2023-02-17T05:11:55.510Z,0.75
2023-02-17T05:14:26.708Z,0.90
2023-02-17T05:16:57.868Z,0.60
2023-02-17T05:19:28.957Z,0.60
2023-02-17T05:22:00.169Z,0.60
2023-02-17T05:24:31.363Z,1.10
2023-02-17T05:27:03.269Z,0.80
2023-02-17T05:29:34.453Z,1.50
2023-02-17T05:32:05.508Z,1.00
2023-02-17T05:34:37.460Z,0.95
2023-02-17T05:37:08.918Z,1.40
2023-02-17T05:39:40.152Z,1.40
2023-02-17T05:42:11.320Z,1.60
2023-02-17T05:44:42.332Z,1.48
2023-02-17T05:47:13.407Z,0.82
2023-02-17T05:49:44.329Z,0.85
2023-02-17T05:54:47.700Z,1.00
2023-02-17T05:59:49.536Z,0.90
2023-02-17T06:02:20.857Z,0.80
2023-02-17T06:04:52.462Z,1.30
2023-02-17T06:07:23.582Z,0.95
2023-02-17T06:09:54.608Z,0.80
2023-02-17T06:12:25.920Z,1.42
2023-02-17T06:14:57.344Z,1.30
2023-02-17T06:17:28.831Z,0.80
2023-02-17T06:22:30.253Z,1.17
2023-02-17T06:25:01.470Z,0.88
2023-02-17T06:27:33.676Z,0.93
2023-02-17T06:30:05.253Z,0.80
2023-02-17T06:35:07.613Z,0.90
2023-02-17T06:37:38.938Z,1.00
2023-02-17T06:42:40.961Z,0.80
2023-02-17T06:45:12.359Z,1.00
2023-02-17T06:47:43.587Z,0.73
2023-02-17T06:50:14.933Z,0.73
2023-02-17T06:55:16.466Z,0.80
2023-02-17T06:57:47.425Z,0.65
2023-02-17T07:00:18.987Z,0.85
2023-02-17T07:02:50.192Z,0.80
2023-02-17T07:05:21.376Z,0.90
2023-02-17T07:07:54.691Z,0.60
2023-02-17T07:10:25.905Z,0.90
2023-02-17T07:12:56.907Z,0.80
2023-02-17T07:15:28.306Z,0.80
2023-02-17T07:17:59.339Z,0.90
2023-02-17T07:20:30.842Z,1.02
2023-02-17T07:23:02.960Z,0.80
2023-02-17T07:25:34.770Z,0.70
2023-02-17T07:28:06.637Z,0.80
2023-02-17T07:30:45.032Z,0.70
2023-02-17T07:33:16.396Z,0.98
2023-02-17T07:35:47.555Z,0.73
2023-02-17T07:38:18.806Z,0.80
2023-02-17T07:40:50.061Z,1.10
2023-02-17T07:43:21.323Z,1.10
2023-02-17T07:45:59.258Z,0.90
2023-02-17T07:48:30.607Z,1.00
2023-02-17T07:51:10.799Z,0.90
2023-02-17T07:53:42.335Z,0.80
2023-02-17T07:56:16.172Z,0.80
2023-02-17T07:58:48.007Z,0.70
2023-02-17T08:01:21.763Z,0.80
2023-02-17T08:03:53.438Z,0.90
2023-02-17T08:09:14.825Z,0.80
2023-02-17T08:12:06.013Z,0.90
2023-02-17T08:14:38.728Z,0.80
2023-02-17T08:17:10.393Z,0.70
2023-02-17T08:19:48.334Z,1.05
2023-02-17T08:22:20.631Z,0.80
2023-02-17T08:24:52.219Z,0.90
2023-02-17T08:27:23.848Z,1.00
2023-02-17T08:29:56.099Z,0.80
2023-02-17T08:34:58.721Z,0.87
2023-02-17T08:37:29.893Z,0.60
2023-02-17T08:40:00.971Z,0.65
2023-02-17T08:42:34.573Z,0.73
2023-02-17T08:45:06.936Z,0.90
2023-02-17T08:47:38.859Z,0.82
2023-02-17T08:50:12.372Z,0.75
2023-02-17T08:52:43.819Z,0.80
2023-02-17T08:55:16.590Z,1.10
2023-02-17T08:57:47.866Z,1.20
2023-02-17T09:00:20.366Z,1.33
2023-02-17T09:02:51.981Z,1.10
2023-02-17T09:05:23.116Z,1.00
2023-02-17T09:07:54.067Z,1.20
2023-02-17T09:10:25.376Z,0.95
2023-02-17T09:12:56.698Z,1.13
2023-02-17T09:15:27.956Z,1.00
2023-02-17T09:17:59.390Z,1.00
2023-02-17T09:20:31.304Z,1.35
2023-02-17T09:23:02.757Z,1.10
2023-02-17T09:25:33.905Z,1.50
2023-02-17T09:30:36.643Z,1.00
2023-02-17T09:33:08.206Z,1.00
2023-02-17T09:35:39.585Z,1.45
2023-02-17T09:38:11.700Z,1.10
2023-02-17T09:40:51.175Z,1.00
2023-02-17T09:43:27.482Z,0.90
2023-02-17T09:46:05.260Z,1.05
2023-02-17T09:48:37.163Z,0.90
2023-02-17T09:53:58.792Z,1.05
2023-02-17T09:56:35.538Z,0.90
2023-02-17T09:59:14.077Z,0.90
2023-02-17T10:01:45.768Z,0.80
2023-02-17T10:04:23.797Z,0.93
2023-02-17T10:07:03.814Z,0.85
2023-02-17T10:09:39.157Z,0.90
2023-02-17T10:12:15.242Z,0.93
2023-02-17T10:14:56.233Z,1.10
2023-02-17T10:17:51.677Z,0.90
2023-02-17T10:20:26.974Z,0.77
2023-02-17T10:23:07.555Z,0.80
2023-02-17T10:26:15.748Z,0.90
2023-02-17T10:28:53.742Z,1.40
2023-02-17T10:31:31.051Z,1.00
2023-02-17T10:34:06.271Z,1.02
2023-02-17T10:36:59.059Z,1.30
2023-02-17T10:39:50.497Z,1.20
2023-02-17T10:42:42.249Z,1.40
2023-02-17T10:45:25.842Z,1.38
2023-02-17T10:48:05.975Z,1.38
2023-02-17T10:50:39.464Z,1.15
2023-02-17T10:53:35.572Z,1.10
2023-02-17T10:56:20.726Z,1.20
2023-02-17T10:59:35.866Z,1.25
2023-02-17T11:02:42.346Z,1.05
2023-02-17T11:05:30.611Z,1.10
2023-02-17T11:08:21.571Z,1.00
2023-02-17T11:11:02.079Z,0.60
2023-02-17T11:14:07.397Z,0.88
2023-02-17T11:16:48.532Z,0.75
2023-02-17T11:19:38.359Z,0.83
2023-02-17T11:22:41.778Z,0.55
2023-02-17T11:25:36.367Z,0.70
2023-02-17T11:28:12.916Z,0.73
2023-02-17T11:30:52.519Z,0.70
2023-02-17T11:33:41.927Z,0.60
2023-02-17T11:36:28.436Z,0.70
2023-02-17T11:39:02.092Z,0.70
2023-02-17T11:41:42.399Z,0.70
2023-02-17T11:44:14.242Z,0.60
2023-02-17T11:46:57.400Z,0.60
2023-02-17T11:49:48.537Z,0.73
2023-02-17T11:52:37.863Z,0.80
2023-02-17T11:55:09.385Z,0.63
2023-02-17T11:57:47.264Z,0.65
2023-02-17T12:00:20.765Z,0.60
2023-02-17T12:03:01.825Z,0.60
2023-02-17T12:05:51.193Z,0.63
2023-02-17T12:08:47.662Z,0.73
2023-02-17T12:11:41.050Z,0.60
2023-02-17T12:14:40.378Z,0.57
2023-02-17T12:18:08.047Z,0.70
2023-02-17T12:21:18.786Z,0.75
2023-02-17T12:24:03.121Z,0.60
2023-02-17T12:26:49.675Z,0.70
2023-02-17T12:29:44.368Z,0.60
2023-02-17T12:32:40.286Z,0.60
2023-02-17T12:35:42.551Z,0.50
2023-02-17T12:38:20.384Z,0.60
2023-02-17T12:41:11.762Z,0.52
2023-02-17T12:43:49.411Z,0.70
2023-02-17T12:46:47.201Z,0.70
2023-02-17T12:49:31.255Z,0.60
2023-02-17T12:52:12.704Z,0.65
2023-02-17T12:55:14.028Z,0.60
2023-02-17T12:58:14.080Z,0.75
2023-02-17T13:00:53.337Z,0.70
2023-02-17T13:03:24.954Z,0.60
2023-02-17T13:06:05.705Z,0.60
2023-02-17T13:08:40.040Z,0.70
2023-02-17T13:11:33.829Z,0.70
2023-02-17T13:14:26.800Z,0.70
2023-02-17T13:16:58.150Z,0.70
2023-02-17T13:19:34.573Z,0.60
2023-02-17T13:22:07.041Z,0.88
2023-02-17T13:24:41.377Z,1.10
2023-02-17T13:27:23.283Z,1.70
2023-02-17T13:30:20.598Z,2.00
2023-02-17T13:33:05.435Z,1.90
2023-02-17T13:35:38.754Z,1.70
2023-02-17T13:38:12.866Z,1.65
2023-02-17T13:40:45.917Z,1.80
2023-02-17T13:43:19.237Z,2.70
2023-02-17T13:45:53.235Z,6.40
2023-02-17T13:48:24.694Z,10.35
2023-02-17T13:50:59.395Z,8.90
2023-02-17T13:53:38.052Z,6.13
2023-02-17T13:56:28.374Z,3.30
2023-02-17T13:59:20.717Z,2.88
2023-02-17T14:01:52.439Z,1.80
2023-02-17T14:04:25.977Z,1.48
2023-02-17T14:07:04.261Z,1.33
2023-02-17T14:09:36.910Z,1.40
2023-02-17T14:12:25.128Z,1.27
2023-02-17T14:14:56.321Z,1.10
2023-02-17T14:17:36.754Z,1.10
2023-02-17T14:20:09.049Z,1.00
2023-02-17T14:22:40.250Z,1.25
2023-02-17T14:25:16.700Z,1.10
2023-02-17T14:27:49.700Z,1.00
2023-02-17T14:30:41.069Z,1.20
2023-02-17T14:33:21.716Z,1.20
2023-02-17T14:35:53.328Z,1.50
2023-02-17T14:38:27.923Z,1.50
2023-02-17T14:41:02.593Z,1.60
2023-02-17T14:43:33.662Z,1.40
2023-02-17T14:46:05.991Z,1.50
2023-02-17T14:48:42.180Z,2.03
2023-02-17T14:51:37.297Z,2.00
2023-02-17T14:54:19.441Z,2.10
2023-02-17T14:56:54.280Z,1.40
2023-02-17T14:59:25.621Z,1.58
2023-02-17T15:01:57.207Z,1.20
2023-02-17T15:04:28.461Z,1.23
2023-02-17T15:06:59.555Z,1.23
2023-02-17T15:09:34.343Z,1.40
2023-02-17T15:12:07.363Z,1.73
2023-02-17T15:14:38.368Z,1.30
2023-02-17T15:17:10.134Z,1.45
2023-02-17T15:19:41.334Z,1.10
2023-02-17T15:22:14.198Z,1.10
2023-02-17T15:24:45.453Z,1.50
2023-02-17T15:27:18.323Z,1.92
2023-02-17T15:29:49.529Z,1.77
2023-02-17T15:32:21.142Z,2.40
2023-02-17T15:34:52.412Z,2.45
2023-02-17T15:37:27.227Z,2.00
2023-02-17T15:39:58.342Z,1.98
2023-02-17T15:42:29.684Z,1.90
2023-02-17T15:45:00.872Z,1.90
2023-02-17T15:47:33.405Z,1.95
2023-02-17T15:50:04.874Z,2.00
2023-02-17T15:52:36.419Z,1.55
2023-02-17T15:55:08.268Z,1.20
2023-02-17T15:57:41.715Z,1.10
2023-02-17T16:00:25.354Z,1.10
2023-02-17T16:02:56.999Z,1.38
2023-02-17T16:05:30.929Z,1.13
2023-02-17T16:08:02.567Z,1.10
2023-02-17T16:10:34.628Z,1.00
2023-02-17T16:13:06.434Z,1.88
2023-02-17T16:15:39.028Z,3.00
2023-02-17T16:18:25.089Z,2.67
2023-02-17T16:20:56.116Z,2.97
2023-02-17T16:23:27.467Z,2.75
2023-02-17T16:25:58.842Z,1.58
2023-02-17T16:28:30.520Z,1.20
2023-02-17T16:31:01.651Z,1.10
2023-02-17T16:33:32.843Z,1.20
2023-02-17T16:36:04.535Z,5.90
2023-02-17T16:38:36.532Z,8.68
2023-02-17T16:41:09.233Z,8.90
2023-02-17T16:43:40.548Z,9.65
2023-02-17T16:46:22.382Z,8.05
2023-02-17T16:48:53.339Z,6.30
2023-02-17T16:51:24.646Z,2.80
2023-02-17T16:53:55.971Z,1.35
2023-02-17T16:56:32.531Z,1.20
2023-02-17T16:59:04.018Z,1.50
2023-02-17T17:01:35.020Z,1.10
2023-02-17T17:04:06.898Z,1.05
2023-02-17T17:06:39.607Z,1.20
2023-02-17T17:09:11.075Z,1.13
2023-02-17T17:11:42.513Z,1.70
2023-02-17T17:14:14.142Z,1.60
2023-02-17T17:16:51.515Z,1.80
2023-02-17T17:19:23.346Z,1.80
2023-02-17T17:21:54.598Z,1.35
2023-02-17T17:24:25.993Z,1.08
2023-02-17T17:26:57.375Z,1.20
2023-02-17T17:29:28.400Z,0.90
2023-02-17T17:31:59.581Z,1.08
2023-02-17T17:34:30.746Z,1.30
2023-02-17T17:37:02.176Z,1.50
2023-02-17T17:39:34.210Z,1.58
2023-02-17T17:42:06.828Z,1.45
2023-02-17T17:44:37.816Z,1.77
2023-02-17T17:47:09.236Z,1.40
2023-02-17T17:49:40.582Z,1.25
2023-02-17T17:52:11.948Z,1.48
2023-02-17T17:54:44.659Z,1.10
2023-02-17T17:57:15.741Z,1.27
2023-02-17T17:59:46.973Z,1.73
2023-02-17T18:02:18.488Z,1.38
2023-02-17T18:04:49.780Z,1.25
2023-02-17T18:07:21.279Z,1.60
2023-02-17T18:09:52.537Z,1.50
2023-02-17T18:12:24.164Z,1.13
2023-02-17T18:14:57.062Z,1.27
2023-02-17T18:17:28.424Z,1.08
2023-02-17T18:19:59.721Z,1.02
2023-02-17T18:22:31.176Z,1.17
2023-02-17T18:25:02.487Z,1.40
2023-02-17T18:30:11.173Z,1.10
2023-02-17T18:32:44.042Z,1.15
2023-02-17T18:35:15.659Z,1.02
2023-02-17T18:37:47.756Z,0.98
2023-02-17T18:40:21.720Z,1.20
2023-02-17T18:42:52.682Z,1.05
2023-02-17T18:45:25.000Z,1.10
2023-02-17T18:47:56.448Z,0.98
2023-02-17T18:50:28.154Z,1.05
2023-02-17T18:52:59.279Z,1.20
2023-02-17T18:55:30.396Z,1.00
2023-02-17T18:58:01.531Z,1.02
2023-02-17T19:00:32.549Z,0.90
2023-02-17T19:03:03.706Z,0.88
2023-02-17T19:05:35.159Z,0.90
2023-02-17T19:08:06.468Z,0.95
2023-02-17T19:10:37.798Z,0.90
2023-02-17T19:13:08.708Z,1.05
2023-02-17T19:15:39.886Z,0.88
2023-02-17T19:18:11.383Z,1.17
2023-02-17T19:20:46.420Z,1.00
2023-02-17T19:23:17.675Z,1.02
2023-02-17T19:25:48.828Z,0.90
2023-02-17T19:28:19.969Z,0.90
2023-02-17T19:30:51.390Z,0.90
2023-02-17T19:33:22.529Z,1.00
2023-02-17T19:35:54.480Z,0.80
2023-02-17T19:40:56.653Z,0.95
2023-02-17T19:43:27.846Z,0.70
2023-02-17T19:45:59.356Z,0.88
2023-02-17T19:48:30.665Z,1.00
2023-02-17T19:51:03.726Z,0.70
2023-02-17T19:53:35.829Z,0.75
2023-02-17T19:56:21.095Z,0.90
2023-02-17T19:58:52.663Z,0.70
2023-02-17T20:04:00.108Z,0.80
2023-02-17T20:06:51.145Z,0.80
2023-02-17T20:09:24.184Z,1.10
2023-02-17T20:11:55.596Z,0.90
2023-02-17T20:14:26.905Z,0.98
2023-02-17T20:16:58.034Z,0.90
2023-02-17T20:19:30.215Z,0.85
2023-02-17T20:22:02.610Z,0.90
2023-02-17T20:24:34.280Z,0.80
2023-02-17T20:27:05.550Z,0.80
2023-02-17T20:29:37.763Z,0.90
2023-02-17T20:32:09.864Z,1.10
2023-02-17T20:34:42.285Z,1.00
2023-02-17T20:37:13.417Z,1.00
2023-02-17T20:39:44.693Z,0.90
2023-02-17T20:42:16.204Z,0.75
2023-02-17T20:44:50.249Z,0.90
2023-02-17T20:47:21.457Z,0.80
2023-02-17T20:49:52.685Z,0.80
2023-02-17T20:52:24.004Z,0.98
2023-02-17T20:54:55.140Z,0.77
2023-02-17T20:57:26.460Z,1.00
2023-02-17T20:59:57.909Z,0.90
2023-02-17T21:02:29.303Z,0.75
2023-02-17T21:05:00.470Z,0.90
2023-02-17T21:07:33.061Z,0.80
2023-02-17T21:10:04.143Z,0.70
2023-02-17T21:12:35.394Z,0.70
2023-02-17T21:15:06.486Z,0.82
2023-02-17T21:17:38.246Z,0.82
2023-02-17T21:20:11.180Z,0.80
2023-02-17T21:22:42.884Z,1.08
2023-02-17T21:25:14.097Z,1.00
2023-02-17T21:30:16.716Z,0.90
2023-02-17T21:32:47.966Z,0.80
2023-02-17T21:35:19.423Z,0.90
2023-02-17T21:37:50.853Z,0.90
2023-02-17T21:40:22.059Z,0.85
2023-02-17T21:43:11.846Z,1.00
2023-02-17T21:45:45.988Z,0.80
2023-02-17T21:48:17.014Z,0.80
2023-02-17T21:50:47.915Z,1.08
2023-02-17T21:53:19.103Z,1.10
2023-02-17T21:55:50.341Z,0.90
2023-02-17T21:58:21.860Z,0.90
2023-02-17T22:03:23.968Z,1.10
2023-02-17T22:08:26.517Z,0.90
2023-02-17T22:10:57.937Z,0.90
2023-02-17T22:13:29.231Z,0.90
2023-02-17T22:16:00.882Z,1.10
2023-02-17T22:18:32.061Z,1.00
2023-02-17T22:21:03.121Z,1.05
2023-02-17T22:26:12.060Z,0.90
2023-02-17T22:28:43.248Z,1.20
2023-02-17T22:33:46.171Z,1.60
2023-02-17T22:36:23.533Z,1.15
2023-02-17T22:38:55.498Z,1.10
2023-02-17T22:41:27.804Z,1.00
2023-02-17T22:43:59.631Z,1.00
2023-02-17T22:46:31.446Z,1.20
2023-02-17T22:49:03.481Z,1.17
2023-02-17T22:51:39.040Z,1.00
2023-02-17T22:54:10.981Z,0.88
2023-02-17T22:56:42.556Z,0.90
2023-02-17T23:01:44.731Z,1.00
2023-02-17T23:04:16.755Z,1.10
2023-02-17T23:06:48.225Z,0.98
2023-02-17T23:09:20.613Z,0.95
2023-02-17T23:11:51.964Z,0.88
2023-02-17T23:14:42.966Z,1.08
2023-02-17T23:17:15.076Z,1.10
2023-02-17T23:19:46.629Z,0.77
2023-02-17T23:24:50.249Z,1.00
2023-02-17T23:27:21.816Z,0.88
2023-02-17T23:29:53.661Z,1.00
2023-02-17T23:32:24.893Z,1.00
2023-02-17T23:37:26.480Z,0.82
2023-02-17T23:39:57.495Z,0.80
2023-02-17T23:42:28.973Z,0.85
2023-02-17T23:45:00.661Z,1.00
2023-02-17T23:47:33.772Z,0.90
2023-02-17T23:50:05.408Z,0.77
2023-02-17T23:52:36.923Z,2.03
2023-02-17T23:55:08.796Z,0.90
2023-02-17T23:57:43.227Z,0.90
